createdAt,value
2023-02-22T00:02:25.156Z,5.19
2023-02-22T00:04:54.741Z,5.04
2023-02-22T00:07:23.777Z,4.97
2023-02-22T00:09:53.692Z,4.77
2023-02-22T00:12:22.195Z,4.76
2023-02-22T00:14:51.213Z,4.64
2023-02-22T00:17:20.527Z,4.58
2023-02-22T00:19:50.642Z,4.47
2023-02-22T00:22:20.586Z,4.22
2023-02-22T00:24:50.333Z,4.10
2023-02-22T00:27:20.807Z,4.27
2023-02-22T00:29:51.378Z,4.37
2023-02-22T00:32:20.066Z,4.19
2023-02-22T00:34:53.172Z,4.23
2023-02-22T00:37:22.364Z,4.20
2023-02-22T00:39:52.300Z,4.23
2023-02-22T00:42:22.760Z,4.08
2023-02-22T00:44:51.436Z,4.11
2023-02-22T00:47:20.227Z,4.10
2023-02-22T00:49:49.794Z,3.89
2023-02-22T00:52:18.589Z,3.79
2023-02-22T00:54:47.265Z,3.82
2023-02-22T00:57:18.246Z,3.87
2023-02-22T00:59:49.369Z,3.96
2023-02-22T01:02:19.184Z,3.92
2023-02-22T01:04:49.217Z,3.99
2023-02-22T01:07:18.189Z,3.94
2023-02-22T01:09:46.873Z,4.05
2023-02-22T01:12:16.079Z,4.04
2023-02-22T01:14:45.770Z,3.99
2023-02-22T01:17:16.006Z,3.91
2023-02-22T01:19:44.637Z,3.92
2023-02-22T01:22:13.272Z,3.89
2023-02-22T01:24:42.056Z,3.96
2023-02-22T01:27:11.051Z,4.06
2023-02-22T01:29:40.614Z,4.00
2023-02-22T01:32:11.960Z,3.84
2023-02-22T01:34:42.442Z,3.84
2023-02-22T01:37:12.806Z,3.64
2023-02-22T01:39:41.470Z,3.68
2023-02-22T01:42:10.456Z,3.45
2023-02-22T01:44:41.536Z,3.49
2023-02-22T01:47:10.185Z,3.65
2023-02-22T01:49:47.867Z,3.68
2023-02-22T01:52:22.825Z,3.54
2023-02-22T01:54:57.127Z,3.49
2023-02-22T01:57:32.259Z,3.53
2023-02-22T02:00:11.082Z,3.60
2023-02-22T02:02:49.154Z,3.62
2023-02-22T02:05:24.853Z,3.60
2023-02-22T02:07:54.405Z,3.31
2023-02-22T02:10:24.363Z,3.35
2023-02-22T02:12:55.156Z,3.39
2023-02-22T02:15:28.945Z,3.43
2023-02-22T02:18:01.831Z,3.45
2023-02-22T02:20:48.284Z,3.42
2023-02-22T02:23:59.757Z,3.26
2023-02-22T02:27:04.090Z,3.15
2023-02-22T02:30:23.488Z,3.21
2023-02-22T02:32:59.833Z,3.19
2023-02-22T02:35:48.140Z,3.21
2023-02-22T02:38:33.398Z,3.14
2023-02-22T02:41:14.685Z,3.09
2023-02-22T02:43:53.012Z,3.15
2023-02-22T02:46:31.636Z,3.19
2023-02-22T02:49:09.843Z,3.21
2023-02-22T02:51:46.980Z,3.17
2023-02-22T02:54:17.002Z,3.19
2023-02-22T02:56:46.887Z,3.06
2023-02-22T02:59:29.358Z,3.08
2023-02-22T03:02:29.056Z,3.20
2023-02-22T03:05:31.818Z,3.14
2023-02-22T03:08:14.929Z,3.22
2023-02-22T03:10:56.744Z,3.26
2023-02-22T03:13:37.858Z,3.29
2023-02-22T03:16:22.239Z,3.45
2023-02-22T03:18:57.174Z,3.42
2023-02-22T03:21:40.551Z,3.34
2023-02-22T03:24:20.253Z,3.18
2023-02-22T03:26:56.486Z,3.10
2023-02-22T03:29:35.460Z,2.91
2023-02-22T03:32:11.646Z,2.78
2023-02-22T03:34:47.563Z,2.70
2023-02-22T03:37:22.881Z,2.65
2023-02-22T03:39:56.570Z,2.49
2023-02-22T03:42:31.129Z,2.17
2023-02-22T03:45:05.708Z,2.14
2023-02-22T03:47:41.111Z,2.11
2023-02-22T03:50:16.361Z,2.04
2023-02-22T03:52:48.570Z,2.04
2023-02-22T03:55:25.090Z,2.02
2023-02-22T03:57:59.640Z,2.01
2023-02-22T04:00:34.928Z,2.05
2023-02-22T04:03:05.344Z,2.12
2023-02-22T04:05:34.103Z,2.21
2023-02-22T04:08:07.460Z,2.33
2023-02-22T04:10:37.919Z,2.44
2023-02-22T04:13:07.669Z,2.45
2023-02-22T04:15:38.889Z,2.23
2023-02-22T04:18:10.030Z,2.09
2023-02-22T04:20:38.682Z,2.09
2023-02-22T04:23:14.434Z,2.01
2023-02-22T04:25:43.631Z,2.04
2023-02-22T04:28:13.709Z,1.89
2023-02-22T04:30:47.048Z,1.94
2023-02-22T04:33:17.554Z,1.97
2023-02-22T04:35:46.148Z,1.95
2023-02-22T04:38:16.757Z,1.97
2023-02-22T04:40:46.004Z,2.05
2023-02-22T04:43:15.373Z,2.03
2023-02-22T04:45:44.114Z,1.96
2023-02-22T04:48:12.736Z,1.92
2023-02-22T04:50:41.576Z,1.90
2023-02-22T04:53:10.213Z,2.09
2023-02-22T04:55:41.651Z,1.99
2023-02-22T04:58:10.807Z,2.21
2023-02-22T05:00:39.904Z,2.29
2023-02-22T05:03:09.853Z,2.41
2023-02-22T05:05:38.552Z,2.39
2023-02-22T05:08:07.701Z,2.38
2023-02-22T05:10:36.288Z,2.34
2023-02-22T05:13:06.620Z,2.46
2023-02-22T05:15:35.320Z,2.50
2023-02-22T05:18:04.167Z,2.71
2023-02-22T05:20:36.629Z,2.80
2023-02-22T05:23:06.262Z,2.51
2023-02-22T05:25:35.344Z,2.66
2023-02-22T05:28:09.594Z,2.67
2023-02-22T05:30:40.261Z,2.64
2023-02-22T05:33:10.043Z,2.68
2023-02-22T05:35:38.794Z,2.69
2023-02-22T05:38:07.972Z,2.79
2023-02-22T05:40:36.556Z,2.81
2023-02-22T05:43:06.542Z,2.84
2023-02-22T05:45:36.358Z,2.77
2023-02-22T05:48:05.870Z,2.54
2023-02-22T05:50:34.750Z,2.57
2023-02-22T05:53:03.577Z,2.68
2023-02-22T05:55:33.292Z,2.77
2023-02-22T05:58:02.020Z,2.79
2023-02-22T06:00:33.288Z,2.63
2023-02-22T06:03:05.966Z,2.57
2023-02-22T06:05:34.633Z,2.43
2023-02-22T06:08:04.839Z,2.52
2023-02-22T06:10:33.975Z,2.55
2023-02-22T06:13:04.517Z,2.31
2023-02-22T06:15:34.724Z,2.51
2023-02-22T06:18:03.891Z,2.50
2023-02-22T06:20:33.449Z,2.33
2023-02-22T06:23:02.593Z,2.50
2023-02-22T06:25:33.434Z,2.48
2023-02-22T06:28:02.524Z,2.51
2023-02-22T06:30:32.304Z,2.58
2023-02-22T06:33:02.360Z,2.56
2023-02-22T06:35:31.104Z,2.29
2023-02-22T06:37:59.943Z,2.38
2023-02-22T06:40:29.641Z,2.48
2023-02-22T06:42:59.978Z,2.33
2023-02-22T06:45:30.751Z,2.23
2023-02-22T06:48:01.099Z,2.52
2023-02-22T06:50:34.295Z,2.62
2023-02-22T06:53:04.899Z,2.78
2023-02-22T06:55:35.607Z,2.78
2023-02-22T06:58:06.003Z,2.68
2023-02-22T07:00:35.014Z,2.91
2023-02-22T07:03:06.053Z,2.96
2023-02-22T07:05:34.635Z,2.94
2023-02-22T07:08:07.137Z,2.91
2023-02-22T07:10:37.575Z,3.12
2023-02-22T07:13:08.722Z,2.99
2023-02-22T07:15:38.064Z,3.10
2023-02-22T07:18:08.534Z,3.31
2023-02-22T07:20:37.417Z,3.38
2023-02-22T07:23:06.713Z,3.50
2023-02-22T07:25:36.106Z,3.47
2023-02-22T07:28:04.978Z,3.56
2023-02-22T07:30:35.080Z,3.57
2023-02-22T07:33:08.047Z,3.64
2023-02-22T07:35:40.009Z,3.64
2023-02-22T07:38:09.852Z,3.66
2023-02-22T07:40:39.849Z,3.50
2023-02-22T07:43:17.901Z,3.54
2023-02-22T07:45:47.411Z,3.56
2023-02-22T07:48:19.706Z,3.87
2023-02-22T07:50:48.765Z,3.91
2023-02-22T07:53:20.813Z,4.05
2023-02-22T07:55:51.184Z,4.15
2023-02-22T07:58:25.536Z,4.08
2023-02-22T08:00:55.584Z,4.16
2023-02-22T08:03:27.909Z,4.07
2023-02-22T08:06:00.847Z,4.34
2023-02-22T08:08:29.648Z,4.39
2023-02-22T08:10:58.515Z,4.63
2023-02-22T08:13:27.291Z,4.81
2023-02-22T08:15:56.525Z,4.66
2023-02-22T08:18:27.574Z,4.50
2023-02-22T08:20:56.460Z,4.82
2023-02-22T08:23:27.761Z,4.81
2023-02-22T08:25:57.052Z,5.15
2023-02-22T08:28:26.703Z,5.33
2023-02-22T08:30:55.635Z,5.27
2023-02-22T08:33:25.765Z,5.25
2023-02-22T08:35:55.432Z,5.11
2023-02-22T08:38:27.421Z,5.25
2023-02-22T08:40:56.246Z,5.74
2023-02-22T08:43:25.983Z,5.52
2023-02-22T08:45:57.288Z,5.81
2023-02-22T08:48:27.725Z,5.79
2023-02-22T08:50:56.314Z,5.62
2023-02-22T08:53:25.047Z,6.23
2023-02-22T08:55:54.722Z,6.14
2023-02-22T08:58:23.372Z,6.30
2023-02-22T09:00:52.211Z,6.82
2023-02-22T09:03:20.858Z,7.06
2023-02-22T09:05:51.041Z,7.63
2023-02-22T09:08:19.847Z,7.64
2023-02-22T09:10:48.544Z,7.65
2023-02-22T09:13:17.362Z,7.31
2023-02-22T09:15:46.097Z,7.32
2023-02-22T09:18:18.059Z,7.46
2023-02-22T09:20:46.665Z,7.80
2023-02-22T09:23:16.737Z,7.96
2023-02-22T09:25:45.826Z,8.14
2023-02-22T09:28:15.225Z,7.97
2023-02-22T09:30:44.586Z,8.21
2023-02-22T09:33:17.201Z,8.52
2023-02-22T09:35:49.778Z,8.72
2023-02-22T09:38:24.451Z,9.09
2023-02-22T09:41:03.654Z,9.54
2023-02-22T09:43:42.778Z,9.57
2023-02-22T09:46:23.609Z,10.06
2023-02-22T09:49:06.311Z,10.24
2023-02-22T09:51:43.269Z,10.53
2023-02-22T09:54:24.630Z,10.48
2023-02-22T09:56:59.188Z,10.58
2023-02-22T09:59:37.594Z,11.02
2023-02-22T10:02:25.156Z,11.35
2023-02-22T10:05:05.723Z,11.56
2023-02-22T10:07:42.947Z,11.65
2023-02-22T10:10:19.625Z,11.68
2023-02-22T10:13:02.189Z,11.95
2023-02-22T10:15:48.343Z,11.97
2023-02-22T10:19:03.231Z,12.22
2023-02-22T10:21:53.569Z,12.19
2023-02-22T10:24:46.001Z,12.45
2023-02-22T10:27:22.186Z,12.41
2023-02-22T10:30:00.446Z,12.45
2023-02-22T10:32:37.504Z,12.72
2023-02-22T10:35:21.803Z,12.94
2023-02-22T10:37:57.293Z,12.94
2023-02-22T10:40:33.026Z,13.08
2023-02-22T10:43:11.191Z,13.09
2023-02-22T10:45:39.968Z,12.97
2023-02-22T10:48:14.160Z,13.11
2023-02-22T10:50:45.722Z,12.99
2023-02-22T10:53:16.467Z,13.39
2023-02-22T10:56:14.619Z,13.64
2023-02-22T10:58:52.735Z,13.65
2023-02-22T11:01:27.598Z,13.84
2023-02-22T11:04:04.087Z,13.94
2023-02-22T11:06:35.004Z,14.29
2023-02-22T11:09:11.740Z,14.38
2023-02-22T11:11:43.982Z,14.57
2023-02-22T11:14:26.155Z,15.07
2023-02-22T11:16:57.738Z,15.38
2023-02-22T11:19:29.071Z,15.75
2023-02-22T11:22:11.605Z,15.97
2023-02-22T11:24:50.612Z,16.28
2023-02-22T11:27:34.421Z,16.58
2023-02-22T11:30:27.260Z,17.02
2023-02-22T11:33:00.566Z,17.20
2023-02-22T11:35:41.012Z,17.16
2023-02-22T11:38:30.038Z,17.14
2023-02-22T11:41:16.126Z,17.44
2023-02-22T11:43:47.683Z,17.44
2023-02-22T11:46:20.691Z,17.59
2023-02-22T11:49:01.435Z,17.65
2023-02-22T11:52:21.868Z,18.07
2023-02-22T11:55:42.798Z,18.27
2023-02-22T11:58:40.809Z,18.38
2023-02-22T12:01:22.492Z,18.46
2023-02-22T12:04:33.082Z,18.52
2023-02-22T12:07:26.309Z,18.39
2023-02-22T12:10:10.121Z,18.84
2023-02-22T12:13:01.766Z,18.02
2023-02-22T12:15:40.640Z,17.97
2023-02-22T12:18:22.985Z,17.48
2023-02-22T12:20:59.580Z,16.66
2023-02-22T12:23:40.649Z,16.67
2023-02-22T12:26:20.045Z,16.66
2023-02-22T12:28:59.367Z,16.68
2023-02-22T12:31:37.642Z,17.23
2023-02-22T12:34:19.992Z,17.73
2023-02-22T12:36:55.270Z,17.36
2023-02-22T12:39:53.167Z,17.28
2023-02-22T12:42:35.400Z,17.32
2023-02-22T12:45:16.900Z,17.08
2023-02-22T12:47:54.509Z,17.01
2023-02-22T12:50:34.462Z,17.02
2023-02-22T12:53:15.547Z,17.12
2023-02-22T12:55:52.378Z,16.75
2023-02-22T12:58:29.000Z,16.77
2023-02-22T13:01:06.963Z,17.11
2023-02-22T13:03:40.180Z,17.23
2023-02-22T13:06:42.578Z,17.59
2023-02-22T13:09:42.414Z,17.38
2023-02-22T13:12:21.719Z,17.17
2023-02-22T13:15:11.677Z,17.53
2023-02-22T13:17:51.302Z,17.89
2023-02-22T13:20:27.877Z,17.77
2023-02-22T13:23:04.379Z,18.14
2023-02-22T13:25:45.235Z,17.91
2023-02-22T13:28:37.804Z,18.17
2023-02-22T13:31:36.802Z,17.94
2023-02-22T13:34:44.824Z,18.09
2023-02-22T13:38:03.112Z,18.14
2023-02-22T13:41:23.156Z,18.23
2023-02-22T13:44:34.082Z,17.90
2023-02-22T13:47:57.711Z,17.53
2023-02-22T13:50:59.178Z,17.87
2023-02-22T13:53:43.597Z,17.60
2023-02-22T13:56:15.833Z,17.83
2023-02-22T13:58:53.828Z,17.60
2023-02-22T14:01:41.812Z,17.69
2023-02-22T14:04:39.105Z,17.98
2023-02-22T14:07:55.999Z,17.59
2023-02-22T14:10:50.940Z,17.75
2023-02-22T14:13:22.534Z,18.11
2023-02-22T14:16:21.792Z,18.55
2023-02-22T14:19:03.020Z,18.65
2023-02-22T14:21:31.658Z,18.59
2023-02-22T14:24:18.406Z,18.92
2023-02-22T14:27:01.596Z,18.66
2023-02-22T14:29:31.287Z,18.36
2023-02-22T14:32:06.406Z,18.83
2023-02-22T14:34:58.206Z,18.74
2023-02-22T14:37:33.370Z,18.79
2023-02-22T14:40:12.945Z,19.06
2023-02-22T14:42:48.995Z,19.22
2023-02-22T14:45:29.244Z,19.41
2023-02-22T14:48:11.731Z,19.52
2023-02-22T14:50:49.149Z,19.65
2023-02-22T14:53:28.708Z,19.72
2023-02-22T14:56:03.460Z,19.70
2023-02-22T14:58:41.722Z,19.47
2023-02-22T15:01:31.238Z,19.23
2023-02-22T15:04:19.937Z,19.32
2023-02-22T15:06:49.920Z,19.32
2023-02-22T15:09:27.733Z,19.28
2023-02-22T15:12:18.387Z,18.84
2023-02-22T15:14:49.800Z,18.64
2023-02-22T15:17:24.816Z,18.29
2023-02-22T15:19:55.024Z,17.77
2023-02-22T15:22:27.910Z,17.67
2023-02-22T15:25:01.770Z,17.52
2023-02-22T15:27:30.699Z,17.28
2023-02-22T15:30:04.738Z,17.04
2023-02-22T15:32:37.529Z,16.91
2023-02-22T15:35:19.600Z,16.68
2023-02-22T15:37:49.121Z,16.45
2023-02-22T15:40:20.935Z,16.30
2023-02-22T15:42:53.081Z,16.05
2023-02-22T15:45:26.240Z,15.85
2023-02-22T15:47:56.269Z,15.69
2023-02-22T15:50:27.492Z,15.53
2023-02-22T15:52:59.591Z,15.31
2023-02-22T15:55:31.741Z,15.10
2023-02-22T15:58:08.939Z,14.98
2023-02-22T16:00:42.648Z,14.85
2023-02-22T16:03:15.251Z,14.72
2023-02-22T16:05:49.739Z,14.50
2023-02-22T16:08:23.253Z,14.47
2023-02-22T16:11:00.636Z,14.27
2023-02-22T16:13:35.058Z,14.15
2023-02-22T16:16:21.702Z,13.90
2023-02-22T16:18:52.793Z,13.61
2023-02-22T16:21:23.923Z,13.38
2023-02-22T16:24:01.345Z,13.32
2023-02-22T16:26:36.609Z,13.14
2023-02-22T16:29:11.067Z,13.01
2023-02-22T16:31:41.664Z,12.88
2023-02-22T16:34:10.988Z,12.74
2023-02-22T16:36:43.366Z,12.55
2023-02-22T16:39:20.004Z,12.43
2023-02-22T16:41:48.785Z,12.51
2023-02-22T16:44:18.011Z,12.43
2023-02-22T16:46:47.975Z,12.37
2023-02-22T16:49:16.450Z,12.37
2023-02-22T16:51:50.724Z,12.51
2023-02-22T16:54:27.204Z,12.65
2023-02-22T16:57:00.271Z,12.59
2023-02-22T16:59:31.198Z,12.46
2023-02-22T17:02:01.171Z,12.23
2023-02-22T17:04:29.804Z,12.30
2023-02-22T17:06:59.083Z,12.23
2023-02-22T17:09:28.002Z,12.22
2023-02-22T17:11:57.246Z,12.22
2023-02-22T17:14:34.818Z,11.94
2023-02-22T17:17:05.226Z,11.99
2023-02-22T17:19:33.831Z,12.04
2023-02-22T17:22:06.002Z,12.04
2023-02-22T17:24:34.990Z,12.01
2023-02-22T17:27:03.886Z,11.96
2023-02-22T17:29:32.624Z,11.85
2023-02-22T17:32:02.519Z,11.84
2023-02-22T17:34:34.363Z,11.52
2023-02-22T17:37:04.899Z,11.31
2023-02-22T17:39:33.564Z,11.23
2023-02-22T17:42:02.227Z,11.18
2023-02-22T17:44:35.259Z,11.08
2023-02-22T17:47:03.863Z,11.11
2023-02-22T17:49:35.004Z,11.08
2023-02-22T17:52:06.309Z,11.00
2023-02-22T17:54:35.218Z,10.90
2023-02-22T17:57:03.904Z,10.88
2023-02-22T17:59:32.609Z,10.82
2023-02-22T18:02:03.210Z,10.75
2023-02-22T18:04:36.796Z,10.82
2023-02-22T18:07:05.444Z,10.68
2023-02-22T18:09:35.789Z,10.68
2023-02-22T18:12:04.574Z,10.70
2023-02-22T18:14:35.359Z,10.59
2023-02-22T18:17:04.259Z,10.57
2023-02-22T18:19:34.536Z,10.69
2023-02-22T18:22:04.235Z,10.72
2023-02-22T18:24:35.312Z,10.68
2023-02-22T18:27:06.649Z,10.75
2023-02-22T18:29:35.700Z,10.63
2023-02-22T18:32:04.585Z,10.62
2023-02-22T18:34:34.621Z,10.53
2023-02-22T18:37:05.525Z,10.40
2023-02-22T18:39:40.723Z,10.28
2023-02-22T18:42:11.368Z,10.04
2023-02-22T18:44:40.640Z,9.93
2023-02-22T18:47:09.328Z,9.90
2023-02-22T18:49:41.952Z,9.77
2023-02-22T18:52:11.496Z,9.81
2023-02-22T18:54:41.092Z,9.83
2023-02-22T18:57:12.108Z,9.94
2023-02-22T18:59:41.120Z,9.86
2023-02-22T19:02:15.058Z,9.83
2023-02-22T19:04:45.166Z,9.77
2023-02-22T19:07:17.922Z,9.75
2023-02-22T19:09:51.092Z,9.66
2023-02-22T19:12:20.088Z,9.74
2023-02-22T19:14:48.950Z,9.66
2023-02-22T19:17:17.908Z,9.69
2023-02-22T19:19:48.943Z,9.77
2023-02-22T19:22:17.740Z,9.70
2023-02-22T19:24:47.372Z,9.60
2023-02-22T19:27:16.216Z,9.59
2023-02-22T19:29:45.035Z,9.62
2023-02-22T19:32:13.994Z,9.51
2023-02-22T19:34:43.970Z,9.57
2023-02-22T19:37:15.388Z,9.47
2023-02-22T19:39:44.266Z,9.49
2023-02-22T19:42:13.016Z,9.43
2023-02-22T19:44:42.057Z,9.50
2023-02-22T19:47:10.734Z,9.45
2023-02-22T19:49:41.069Z,9.34
2023-02-22T19:52:09.811Z,9.21
2023-02-22T19:54:40.104Z,9.20
2023-02-22T19:57:24.427Z,9.13
2023-02-22T19:59:58.081Z,9.18
2023-02-22T20:02:27.666Z,9.14
2023-02-22T20:04:56.478Z,9.21
2023-02-22T20:07:25.436Z,9.13
2023-02-22T20:09:56.459Z,9.22
2023-02-22T20:12:25.141Z,9.11
2023-02-22T20:14:53.818Z,9.07
2023-02-22T20:17:22.490Z,9.01
2023-02-22T20:19:51.229Z,8.96
2023-02-22T20:22:19.879Z,8.79
2023-02-22T20:24:49.654Z,8.77
2023-02-22T20:27:19.702Z,8.86
2023-02-22T20:29:48.352Z,8.66
2023-02-22T20:32:18.003Z,8.46
2023-02-22T20:34:47.823Z,8.44
2023-02-22T20:37:17.644Z,8.30
2023-02-22T20:39:46.228Z,8.14
2023-02-22T20:42:15.542Z,8.24
2023-02-22T20:44:45.994Z,8.14
2023-02-22T20:47:14.543Z,8.10
2023-02-22T20:49:43.220Z,8.04
2023-02-22T20:52:11.991Z,7.93
2023-02-22T20:54:40.557Z,7.93
2023-02-22T20:57:09.075Z,7.97
2023-02-22T20:59:37.817Z,7.99
2023-02-22T21:02:08.645Z,8.04
2023-02-22T21:04:37.254Z,8.03
2023-02-22T21:07:05.934Z,7.98
2023-02-22T21:09:35.329Z,7.92
2023-02-22T21:12:07.141Z,7.86
2023-02-22T21:14:35.713Z,7.85
2023-02-22T21:17:05.139Z,7.94
2023-02-22T21:19:36.113Z,7.95
2023-02-22T21:22:08.192Z,7.95
2023-02-22T21:24:37.992Z,8.00
2023-02-22T21:27:07.000Z,7.96
2023-02-22T21:29:35.948Z,7.92
2023-02-22T21:32:05.027Z,7.77
2023-02-22T21:34:35.105Z,7.75
2023-02-22T21:37:07.994Z,7.76
2023-02-22T21:39:36.952Z,7.70
2023-02-22T21:42:07.256Z,7.82
2023-02-22T21:44:35.883Z,7.90
2023-02-22T21:47:04.747Z,7.96
2023-02-22T21:49:34.783Z,8.04
2023-02-22T21:52:04.417Z,8.05
2023-02-22T21:54:33.176Z,8.17
2023-02-22T21:57:01.764Z,8.19
2023-02-22T21:59:30.297Z,8.39
2023-02-22T22:01:59.078Z,8.17
2023-02-22T22:04:30.946Z,8.31
2023-02-22T22:07:03.843Z,8.08
2023-02-22T22:09:37.121Z,7.86
2023-02-22T22:12:06.314Z,7.64
2023-02-22T22:14:36.956Z,7.64
2023-02-22T22:17:09.421Z,7.63
2023-02-22T22:19:40.519Z,7.71
2023-02-22T22:22:10.607Z,7.74
2023-02-22T22:24:41.664Z,7.71
2023-02-22T22:27:12.833Z,7.60
2023-02-22T22:29:43.640Z,7.60
2023-02-22T22:32:12.467Z,7.60
2023-02-22T22:34:42.605Z,7.69
2023-02-22T22:37:13.258Z,7.50
2023-02-22T22:39:42.466Z,7.47
2023-02-22T22:42:11.291Z,7.45
2023-02-22T22:44:42.292Z,7.69
2023-02-22T22:47:12.478Z,7.66
2023-02-22T22:49:42.513Z,7.49
2023-02-22T22:52:14.556Z,7.50
2023-02-22T22:54:44.492Z,7.54
2023-02-22T22:57:13.600Z,7.60
2023-02-22T22:59:42.379Z,7.58
2023-02-22T23:02:11.434Z,7.68
2023-02-22T23:04:40.223Z,7.70
2023-02-22T23:07:08.713Z,7.57
2023-02-22T23:09:39.513Z,7.72
2023-02-22T23:12:16.695Z,7.71
2023-02-22T23:14:47.007Z,7.66
2023-02-22T23:17:31.030Z,7.76
2023-02-22T23:19:59.853Z,7.93
2023-02-22T23:22:28.611Z,8.10
2023-02-22T23:25:00.899Z,8.23
2023-02-22T23:27:30.128Z,8.21
2023-02-22T23:29:59.309Z,7.99
2023-02-22T23:32:28.142Z,8.04
2023-02-22T23:34:56.848Z,7.99
2023-02-22T23:37:25.459Z,7.94
2023-02-22T23:39:53.974Z,8.03
2023-02-22T23:42:23.972Z,8.07
2023-02-22T23:44:53.834Z,8.02
2023-02-22T23:47:22.641Z,8.02
2023-02-22T23:49:51.244Z,8.06
2023-02-22T23:52:24.131Z,8.09
2023-02-22T23:54:54.093Z,8.11
2023-02-22T23:57:25.975Z,8.12
2023-02-22T23:59:54.478Z,7.94
